Highland City, Florida
Current Conditions -  °F | °C
As of 7:35 PM on Friday 21 Nov 2014 (Local Time) from KBOW Reporting Station
Scattered Clouds Scattered Clouds  
Wind Chill: 64°   Ceiling: Unl
Heat Index: 64°   Visibility: 10mi
Dew Point: 55°   Wind: 10mph
Humidity: 73%   Direction: 40°NE
Pressure: 30.26"   Gusts: 16mph
Location:  27.97°N, 81.88°W
Report Text: KBOW 220035Z AUTO 04009G14KT 10SM SCT075 18/13 A3026 RMK AO2
Loading
Personal Weather Stations






























Interactive Weather Map New forecast layout! Learn more

10-Day Weather Forecast

Advertisements
Track Severe Weather on mobile